sensor_id;sensor_type;location;lat;lon;timestamp;P1;P2;P0
20157;PMS5003;10239;56.820;24.416;2023-07-24T00:01:15;4.75;4.75;3.50
20157;PMS5003;10239;56.820;24.416;2023-07-24T00:03:45;5.50;5.50;3.25
20157;PMS5003;10239;56.820;24.416;2023-07-24T00:06:12;7.50;7.50;4.25
20157;PMS5003;10239;56.820;24.416;2023-07-24T00:08:40;6.75;6.75;4.00
20157;PMS5003;10239;56.820;24.416;2023-07-24T00:11:08;5.25;5.25;4.00
20157;PMS5003;10239;56.820;24.416;2023-07-24T00:13:35;7.00;7.00;5.00
20157;PMS5003;10239;56.820;24.416;2023-07-24T00:16:07;6.75;6.75;4.25
20157;PMS5003;10239;56.820;24.416;2023-07-24T00:18:35;5.00;5.00;4.00
20157;PMS5003;10239;56.820;24.416;2023-07-24T00:21:03;6.00;6.00;4.00
20157;PMS5003;10239;56.820;24.416;2023-07-24T00:23:30;7.00;7.00;4.00
20157;PMS5003;10239;56.820;24.416;2023-07-24T00:25:58;5.50;5.50;3.00
20157;PMS5003;10239;56.820;24.416;2023-07-24T00:28:25;6.50;6.50;4.00
20157;PMS5003;10239;56.820;24.416;2023-07-24T00:30:53;7.25;7.25;3.75
20157;PMS5003;10239;56.820;24.416;2023-07-24T00:33:20;4.00;4.00;3.25
20157;PMS5003;10239;56.820;24.416;2023-07-24T00:35:48;4.25;4.25;3.00
20157;PMS5003;10239;56.820;24.416;2023-07-24T00:38:16;8.25;7.75;3.75
20157;PMS5003;10239;56.820;24.416;2023-07-24T00:40:44;6.50;6.50;3.00
20157;PMS5003;10239;56.820;24.416;2023-07-24T00:43:11;5.00;5.00;4.00
20157;PMS5003;10239;56.820;24.416;2023-07-24T00:45:39;6.75;6.75;3.75
20157;PMS5003;10239;56.820;24.416;2023-07-24T00:48:07;5.50;5.50;4.00
20157;PMS5003;10239;56.820;24.416;2023-07-24T00:50:38;8.00;8.00;4.75
20157;PMS5003;10239;56.820;24.416;2023-07-24T00:53:07;7.00;7.00;4.50
20157;PMS5003;10239;56.820;24.416;2023-07-24T00:55:35;7.00;7.00;4.00
20157;PMS5003;10239;56.820;24.416;2023-07-24T00:58:03;8.25;8.25;4.50
20157;PMS5003;10239;56.820;24.416;2023-07-24T01:00:31;9.00;9.00;7.00
20157;PMS5003;10239;56.820;24.416;2023-07-24T01:02:59;8.25;8.25;4.50
20157;PMS5003;10239;56.820;24.416;2023-07-24T01:05:27;9.75;9.75;6.00
20157;PMS5003;10239;56.820;24.416;2023-07-24T01:07:56;5.50;5.50;3.00
20157;PMS5003;10239;56.820;24.416;2023-07-24T01:10:24;4.00;4.00;3.00
20157;PMS5003;10239;56.820;24.416;2023-07-24T01:12:59;9.00;9.00;5.00
20157;PMS5003;10239;56.820;24.416;2023-07-24T01:15:34;5.50;5.50;4.00
20157;PMS5003;10239;56.820;24.416;2023-07-24T01:18:09;7.75;7.75;4.75
20157;PMS5003;10239;56.820;24.416;2023-07-24T01:20:38;8.00;8.00;4.50
20157;PMS5003;10239;56.820;24.416;2023-07-24T01:26:04;6.75;6.75;5.00
20157;PMS5003;10239;56.820;24.416;2023-07-24T01:28:33;6.00;6.00;4.00
20157;PMS5003;10239;56.820;24.416;2023-07-24T01:31:01;5.75;5.75;4.00
20157;PMS5003;10239;56.820;24.416;2023-07-24T01:33:29;6.75;6.75;4.00
20157;PMS5003;10239;56.820;24.416;2023-07-24T01:35:58;8.75;8.75;6.00
20157;PMS5003;10239;56.820;24.416;2023-07-24T01:38:30;8.50;8.50;5.00
20157;PMS5003;10239;56.820;24.416;2023-07-24T01:41:01;7.00;7.00;4.00
20157;PMS5003;10239;56.820;24.416;2023-07-24T01:43:30;7.25;7.25;5.75
20157;PMS5003;10239;56.820;24.416;2023-07-24T01:45:59;7.00;7.00;4.00
20157;PMS5003;10239;56.820;24.416;2023-07-24T01:48:26;4.50;4.50;3.50
20157;PMS5003;10239;56.820;24.416;2023-07-24T01:50:54;7.50;7.50;3.00
20157;PMS5003;10239;56.820;24.416;2023-07-24T01:53:21;7.00;7.00;3.25
20157;PMS5003;10239;56.820;24.416;2023-07-24T01:55:49;9.25;9.25;5.75
20157;PMS5003;10239;56.820;24.416;2023-07-24T01:58:17;8.50;8.50;4.50
20157;PMS5003;10239;56.820;24.416;2023-07-24T02:00:44;5.75;5.75;4.50
20157;PMS5003;10239;56.820;24.416;2023-07-24T02:03:12;8.00;8.00;6.00
20157;PMS5003;10239;56.820;24.416;2023-07-24T02:05:39;7.25;7.25;4.75
20157;PMS5003;10239;56.820;24.416;2023-07-24T02:08:07;7.67;7.67;5.33
20157;PMS5003;10239;56.820;24.416;2023-07-24T02:10:36;9.50;9.50;6.75
20157;PMS5003;10239;56.820;24.416;2023-07-24T02:13:04;7.75;7.75;4.50
20157;PMS5003;10239;56.820;24.416;2023-07-24T02:15:34;8.75;8.75;5.00
20157;PMS5003;10239;56.820;24.416;2023-07-24T02:18:01;8.25;8.25;5.25
20157;PMS5003;10239;56.820;24.416;2023-07-24T02:20:29;7.25;7.25;5.00
20157;PMS5003;10239;56.820;24.416;2023-07-24T02:22:57;7.00;7.00;4.00
20157;PMS5003;10239;56.820;24.416;2023-07-24T02:25:26;15.50;11.00;5.00
20157;PMS5003;10239;56.820;24.416;2023-07-24T02:27:54;6.50;6.50;2.25
20157;PMS5003;10239;56.820;24.416;2023-07-24T02:30:22;7.75;7.75;4.00
20157;PMS5003;10239;56.820;24.416;2023-07-24T02:32:50;8.00;8.00;4.50
20157;PMS5003;10239;56.820;24.416;2023-07-24T02:35:17;7.25;7.25;4.00
20157;PMS5003;10239;56.820;24.416;2023-07-24T02:37:45;7.00;7.00;4.00
20157;PMS5003;10239;56.820;24.416;2023-07-24T02:40:13;10.50;10.50;5.00
20157;PMS5003;10239;56.820;24.416;2023-07-24T02:42:40;10.25;10.25;6.00
20157;PMS5003;10239;56.820;24.416;2023-07-24T02:45:08;7.75;7.75;4.50
20157;PMS5003;10239;56.820;24.416;2023-07-24T02:47:37;9.50;9.50;6.50
20157;PMS5003;10239;56.820;24.416;2023-07-24T02:50:05;7.00;7.00;4.00
20157;PMS5003;10239;56.820;24.416;2023-07-24T02:52:33;3.00;3.00;3.00
20157;PMS5003;10239;56.820;24.416;2023-07-24T02:55:01;9.50;9.50;5.00
20157;PMS5003;10239;56.820;24.416;2023-07-24T02:57:29;8.00;6.75;3.50
20157;PMS5003;10239;56.820;24.416;2023-07-24T02:59:57;6.25;6.25;5.00
20157;PMS5003;10239;56.820;24.416;2023-07-24T03:02:24;9.00;9.00;5.00
20157;PMS5003;10239;56.820;24.416;2023-07-24T03:04:52;6.75;6.75;5.25
20157;PMS5003;10239;56.820;24.416;2023-07-24T03:07:19;8.00;8.00;4.00
20157;PMS5003;10239;56.820;24.416;2023-07-24T03:09:47;8.25;8.25;4.00
20157;PMS5003;10239;56.820;24.416;2023-07-24T03:12:14;5.00;5.00;3.00
20157;PMS5003;10239;56.820;24.416;2023-07-24T03:14:42;7.75;5.75;4.00
20157;PMS5003;10239;56.820;24.416;2023-07-24T03:17:10;9.00;9.00;5.00
20157;PMS5003;10239;56.820;24.416;2023-07-24T03:19:38;9.00;9.00;5.25
20157;PMS5003;10239;56.820;24.416;2023-07-24T03:22:05;7.00;7.00;4.75
20157;PMS5003;10239;56.820;24.416;2023-07-24T03:24:33;6.50;6.50;5.00
20157;PMS5003;10239;56.820;24.416;2023-07-24T03:27:01;6.00;6.00;4.75
20157;PMS5003;10239;56.820;24.416;2023-07-24T03:29:29;7.00;7.00;4.50
20157;PMS5003;10239;56.820;24.416;2023-07-24T03:31:57;8.50;8.50;5.50
20157;PMS5003;10239;56.820;24.416;2023-07-24T03:34:25;8.50;8.50;5.50
20157;PMS5003;10239;56.820;24.416;2023-07-24T03:36:52;8.25;4.00;2.50
20157;PMS5003;10239;56.820;24.416;2023-07-24T03:39:20;7.50;7.50;4.00
20157;PMS5003;10239;56.820;24.416;2023-07-24T03:41:48;6.50;6.50;4.00
20157;PMS5003;10239;56.820;24.416;2023-07-24T03:44:15;9.00;9.00;4.75
20157;PMS5003;10239;56.820;24.416;2023-07-24T03:46:43;9.00;9.00;4.50
20157;PMS5003;10239;56.820;24.416;2023-07-24T03:49:10;8.00;8.00;4.00
20157;PMS5003;10239;56.820;24.416;2023-07-24T03:51:38;10.25;10.25;5.75
20157;PMS5003;10239;56.820;24.416;2023-07-24T03:54:05;6.50;6.50;5.00
20157;PMS5003;10239;56.820;24.416;2023-07-24T03:56:33;11.25;11.00;5.00
20157;PMS5003;10239;56.820;24.416;2023-07-24T03:59:00;9.00;9.00;4.75
20157;PMS5003;10239;56.820;24.416;2023-07-24T04:01:27;9.25;9.25;4.00
20157;PMS5003;10239;56.820;24.416;2023-07-24T04:03:55;7.50;7.25;4.00
20157;PMS5003;10239;56.820;24.416;2023-07-24T04:06:23;12.25;11.75;4.75
20157;PMS5003;10239;56.820;24.416;2023-07-24T04:08:50;7.25;7.25;4.75
20157;PMS5003;10239;56.820;24.416;2023-07-24T04:11:17;8.25;8.25;5.00
20157;PMS5003;10239;56.820;24.416;2023-07-24T04:13:45;13.50;10.25;4.50
20157;PMS5003;10239;56.820;24.416;2023-07-24T04:16:12;10.25;10.00;3.50
20157;PMS5003;10239;56.820;24.416;2023-07-24T04:18:40;6.50;4.00;3.00
20157;PMS5003;10239;56.820;24.416;2023-07-24T04:21:08;9.00;7.25;4.00
20157;PMS5003;10239;56.820;24.416;2023-07-24T04:23:36;9.00;6.75;3.25
20157;PMS5003;10239;56.820;24.416;2023-07-24T04:26:04;11.25;9.50;4.00
20157;PMS5003;10239;56.820;24.416;2023-07-24T04:28:31;9.25;8.75;4.00
20157;PMS5003;10239;56.820;24.416;2023-07-24T04:30:59;11.00;9.00;6.00
20157;PMS5003;10239;56.820;24.416;2023-07-24T04:33:28;6.75;6.75;3.50
20157;PMS5003;10239;56.820;24.416;2023-07-24T04:35:58;6.25;6.00;4.00
20157;PMS5003;10239;56.820;24.416;2023-07-24T04:38:26;7.00;7.00;3.00
20157;PMS5003;10239;56.820;24.416;2023-07-24T04:40:54;12.00;9.25;5.00
20157;PMS5003;10239;56.820;24.416;2023-07-24T04:43:21;8.00;8.00;4.00
20157;PMS5003;10239;56.820;24.416;2023-07-24T04:45:49;6.00;6.00;3.75
20157;PMS5003;10239;56.820;24.416;2023-07-24T04:48:16;6.75;5.75;4.00
20157;PMS5003;10239;56.820;24.416;2023-07-24T04:50:44;11.00;8.00;3.50
20157;PMS5003;10239;56.820;24.416;2023-07-24T04:53:12;8.75;7.75;3.50
20157;PMS5003;10239;56.820;24.416;2023-07-24T04:55:39;11.25;9.50;4.75
20157;PMS5003;10239;56.820;24.416;2023-07-24T04:58:07;9.50;8.75;4.75
20157;PMS5003;10239;56.820;24.416;2023-07-24T05:00:35;7.50;5.75;3.50
20157;PMS5003;10239;56.820;24.416;2023-07-24T05:03:02;10.00;8.50;4.25
20157;PMS5003;10239;56.820;24.416;2023-07-24T05:05:30;8.25;6.50;3.50
20157;PMS5003;10239;56.820;24.416;2023-07-24T05:07:58;7.75;7.00;3.75
20157;PMS5003;10239;56.820;24.416;2023-07-24T05:10:26;11.25;8.00;4.00
20157;PMS5003;10239;56.820;24.416;2023-07-24T05:12:53;10.25;8.25;4.75
20157;PMS5003;10239;56.820;24.416;2023-07-24T05:15:23;4.00;4.00;2.00
20157;PMS5003;10239;56.820;24.416;2023-07-24T05:17:51;7.75;6.50;3.25
20157;PMS5003;10239;56.820;24.416;2023-07-24T05:20:18;7.25;7.00;3.00
20157;PMS5003;10239;56.820;24.416;2023-07-24T05:22:46;11.25;8.75;3.75
20157;PMS5003;10239;56.820;24.416;2023-07-24T05:25:14;8.25;6.00;4.00
20157;PMS5003;10239;56.820;24.416;2023-07-24T05:27:41;8.60;7.00;4.00
20157;PMS5003;10239;56.820;24.416;2023-07-24T05:30:11;6.40;5.80;4.00
20157;PMS5003;10239;56.820;24.416;2023-07-24T05:32:39;8.00;4.50;3.00
20157;PMS5003;10239;56.820;24.416;2023-07-24T05:35:07;8.50;6.00;3.00
20157;PMS5003;10239;56.820;24.416;2023-07-24T05:37:34;7.00;6.50;3.75
20157;PMS5003;10239;56.820;24.416;2023-07-24T05:40:02;7.75;5.00;2.50
20157;PMS5003;10239;56.820;24.416;2023-07-24T05:42:30;9.00;8.25;3.50
20157;PMS5003;10239;56.820;24.416;2023-07-24T05:44:57;9.00;9.00;5.00
20157;PMS5003;10239;56.820;24.416;2023-07-24T05:47:25;8.50;7.25;3.25
20157;PMS5003;10239;56.820;24.416;2023-07-24T05:49:53;9.50;7.50;2.75
20157;PMS5003;10239;56.820;24.416;2023-07-24T05:52:21;13.25;6.50;3.50
20157;PMS5003;10239;56.820;24.416;2023-07-24T05:54:49;5.50;5.00;2.00
20157;PMS5003;10239;56.820;24.416;2023-07-24T05:57:16;10.00;7.00;3.00
20157;PMS5003;10239;56.820;24.416;2023-07-24T05:59:44;6.75;6.75;3.25
20157;PMS5003;10239;56.820;24.416;2023-07-24T06:02:12;5.50;5.00;3.50
20157;PMS5003;10239;56.820;24.416;2023-07-24T06:04:39;9.25;8.25;4.00
20157;PMS5003;10239;56.820;24.416;2023-07-24T06:07:07;9.75;8.50;4.00
20157;PMS5003;10239;56.820;24.416;2023-07-24T06:09:34;11.75;9.00;4.75
20157;PMS5003;10239;56.820;24.416;2023-07-24T06:12:02;9.75;8.25;3.00
20157;PMS5003;10239;56.820;24.416;2023-07-24T06:14:30;5.75;5.75;3.00
20157;PMS5003;10239;56.820;24.416;2023-07-24T06:16:58;5.50;5.50;2.00
20157;PMS5003;10239;56.820;24.416;2023-07-24T06:19:25;9.75;7.25;3.25
20157;PMS5003;10239;56.820;24.416;2023-07-24T06:21:53;7.50;7.00;3.00
20157;PMS5003;10239;56.820;24.416;2023-07-24T06:24:21;8.75;6.00;3.25
20157;PMS5003;10239;56.820;24.416;2023-07-24T06:26:50;0.75;0.75;0.75
20157;PMS5003;10239;56.820;24.416;2023-07-24T06:29:18;9.00;3.80;1.80
20157;PMS5003;10239;56.820;24.416;2023-07-24T06:31:45;7.00;6.00;3.00
20157;PMS5003;10239;56.820;24.416;2023-07-24T06:34:13;5.50;5.50;2.75
20157;PMS5003;10239;56.820;24.416;2023-07-24T06:36:40;8.40;6.20;3.00
20157;PMS5003;10239;56.820;24.416;2023-07-24T06:39:08;4.40;4.40;2.00
20157;PMS5003;10239;56.820;24.416;2023-07-24T06:41:36;7.75;5.50;3.00
20157;PMS5003;10239;56.820;24.416;2023-07-24T06:44:04;5.75;5.75;3.25
20157;PMS5003;10239;56.820;24.416;2023-07-24T06:46:31;7.50;5.25;2.00
20157;PMS5003;10239;56.820;24.416;2023-07-24T06:48:59;4.00;3.60;1.60
20157;PMS5003;10239;56.820;24.416;2023-07-24T06:51:27;9.00;6.20;3.00
20157;PMS5003;10239;56.820;24.416;2023-07-24T06:53:54;6.40;6.00;2.00
20157;PMS5003;10239;56.820;24.416;2023-07-24T06:56:22;5.80;5.60;3.40
20157;PMS5003;10239;56.820;24.416;2023-07-24T06:58:50;4.60;4.60;2.00
20157;PMS5003;10239;56.820;24.416;2023-07-24T07:01:17;7.20;6.20;3.00
20157;PMS5003;10239;56.820;24.416;2023-07-24T07:03:45;6.00;4.00;2.00
20157;PMS5003;10239;56.820;24.416;2023-07-24T07:06:13;5.20;3.60;1.20
20157;PMS5003;10239;56.820;24.416;2023-07-24T07:08:43;5.80;4.60;1.60
20157;PMS5003;10239;56.820;24.416;2023-07-24T07:11:11;5.80;2.60;1.00
20157;PMS5003;10239;56.820;24.416;2023-07-24T07:13:39;4.00;4.00;1.20
20157;PMS5003;10239;56.820;24.416;2023-07-24T07:16:06;3.80;3.80;1.80
20157;PMS5003;10239;56.820;24.416;2023-07-24T07:18:34;7.20;4.80;2.80
20157;PMS5003;10239;56.820;24.416;2023-07-24T07:21:01;3.20;3.20;2.00
20157;PMS5003;10239;56.820;24.416;2023-07-24T07:23:29;3.80;3.00;1.60
20157;PMS5003;10239;56.820;24.416;2023-07-24T07:25:57;5.40;3.00;1.20
20157;PMS5003;10239;56.820;24.416;2023-07-24T07:28:25;2.00;2.00;1.00
20157;PMS5003;10239;56.820;24.416;2023-07-24T07:30:53;4.20;3.60;1.40
20157;PMS5003;10239;56.820;24.416;2023-07-24T07:33:21;5.00;3.80;2.00
20157;PMS5003;10239;56.820;24.416;2023-07-24T07:35:49;7.40;4.40;2.00
20157;PMS5003;10239;56.820;24.416;2023-07-24T07:38:17;5.60;4.00;2.00
20157;PMS5003;10239;56.820;24.416;2023-07-24T07:40:44;5.00;5.00;2.40
20157;PMS5003;10239;56.820;24.416;2023-07-24T07:43:12;4.00;4.00;2.00
20157;PMS5003;10239;56.820;24.416;2023-07-24T07:45:40;5.60;5.00;2.00
20157;PMS5003;10239;56.820;24.416;2023-07-24T07:48:07;4.40;3.80;1.60
20157;PMS5003;10239;56.820;24.416;2023-07-24T07:50:35;4.40;2.80;1.20
20157;PMS5003;10239;56.820;24.416;2023-07-24T07:53:03;8.60;6.20;2.20
20157;PMS5003;10239;56.820;24.416;2023-07-24T07:55:31;5.40;5.40;2.20
20157;PMS5003;10239;56.820;24.416;2023-07-24T07:57:58;8.20;7.80;3.60
20157;PMS5003;10239;56.820;24.416;2023-07-24T08:00:26;5.60;5.00;2.80
20157;PMS5003;10239;56.820;24.416;2023-07-24T08:02:54;6.60;5.20;2.40
20157;PMS5003;10239;56.820;24.416;2023-07-24T08:05:21;7.80;4.40;3.00
20157;PMS5003;10239;56.820;24.416;2023-07-24T08:07:49;3.00;3.00;0.80
20157;PMS5003;10239;56.820;24.416;2023-07-24T08:10:17;4.00;4.00;1.20
20157;PMS5003;10239;56.820;24.416;2023-07-24T08:12:45;5.00;5.00;2.00
20157;PMS5003;10239;56.820;24.416;2023-07-24T08:15:13;5.60;4.00;2.00
20157;PMS5003;10239;56.820;24.416;2023-07-24T08:17:40;3.60;3.60;2.00
20157;PMS5003;10239;56.820;24.416;2023-07-24T08:20:08;4.00;4.00;2.00
20157;PMS5003;10239;56.820;24.416;2023-07-24T08:22:36;2.40;2.40;2.00
20157;PMS5003;10239;56.820;24.416;2023-07-24T08:25:04;2.60;1.00;1.00
20157;PMS5003;10239;56.820;24.416;2023-07-24T08:27:32;4.60;3.40;1.40
20157;PMS5003;10239;56.820;24.416;2023-07-24T08:30:11;2.40;2.40;1.20
20157;PMS5003;10239;56.820;24.416;2023-07-24T08:32:39;5.80;3.00;2.00
20157;PMS5003;10239;56.820;24.416;2023-07-24T08:35:06;8.60;5.40;2.00
20157;PMS5003;10239;56.820;24.416;2023-07-24T08:37:34;2.80;2.40;1.20
20157;PMS5003;10239;56.820;24.416;2023-07-24T08:40:02;3.80;3.80;2.00
20157;PMS5003;10239;56.820;24.416;2023-07-24T08:42:30;3.80;3.20;1.80
20157;PMS5003;10239;56.820;24.416;2023-07-24T08:44:59;5.20;5.20;2.00
20157;PMS5003;10239;56.820;24.416;2023-07-24T08:47:27;3.80;3.80;2.00
20157;PMS5003;10239;56.820;24.416;2023-07-24T08:49:56;5.80;4.40;1.80
20157;PMS5003;10239;56.820;24.416;2023-07-24T08:52:25;5.20;4.80;2.20
20157;PMS5003;10239;56.820;24.416;2023-07-24T08:55:01;5.00;5.00;3.00
20157;PMS5003;10239;56.820;24.416;2023-07-24T08:57:30;3.40;3.40;2.00
20157;PMS5003;10239;56.820;24.416;2023-07-24T08:59:58;3.80;3.80;2.00
20157;PMS5003;10239;56.820;24.416;2023-07-24T09:02:27;3.80;3.00;1.60
20157;PMS5003;10239;56.820;24.416;2023-07-24T09:04:55;3.00;3.00;2.00
20157;PMS5003;10239;56.820;24.416;2023-07-24T09:07:22;2.00;2.00;1.00
20157;PMS5003;10239;56.820;24.416;2023-07-24T09:09:50;4.80;4.80;3.00
20157;PMS5003;10239;56.820;24.416;2023-07-24T09:12:18;3.60;3.60;2.00
20157;PMS5003;10239;56.820;24.416;2023-07-24T09:14:46;3.80;3.80;1.80
20157;PMS5003;10239;56.820;24.416;2023-07-24T09:17:13;4.60;4.60;0.80
20157;PMS5003;10239;56.820;24.416;2023-07-24T09:19:41;7.60;4.80;2.80
20157;PMS5003;10239;56.820;24.416;2023-07-24T09:22:14;6.80;5.20;1.40
20157;PMS5003;10239;56.820;24.416;2023-07-24T09:24:57;4.00;4.00;2.40
20157;PMS5003;10239;56.820;24.416;2023-07-24T09:27:26;6.60;5.60;2.40
20157;PMS5003;10239;56.820;24.416;2023-07-24T09:29:58;5.20;3.80;1.60
20157;PMS5003;10239;56.820;24.416;2023-07-24T09:32:26;6.40;3.20;1.40
20157;PMS5003;10239;56.820;24.416;2023-07-24T09:34:54;7.60;5.00;2.20
20157;PMS5003;10239;56.820;24.416;2023-07-24T09:37:26;4.40;4.40;1.80
20157;PMS5003;10239;56.820;24.416;2023-07-24T09:39:55;4.00;4.00;3.00
20157;PMS5003;10239;56.820;24.416;2023-07-24T09:42:32;5.00;5.00;1.20
20157;PMS5003;10239;56.820;24.416;2023-07-24T09:45:23;5.60;4.00;1.40
20157;PMS5003;10239;56.820;24.416;2023-07-24T09:47:52;6.20;5.40;2.80
20157;PMS5003;10239;56.820;24.416;2023-07-24T09:50:30;5.40;4.00;2.00
20157;PMS5003;10239;56.820;24.416;2023-07-24T09:52:58;6.60;5.00;2.80
20157;PMS5003;10239;56.820;24.416;2023-07-24T09:55:29;6.00;4.60;1.80
20157;PMS5003;10239;56.820;24.416;2023-07-24T09:58:01;5.40;3.60;1.00
20157;PMS5003;10239;56.820;24.416;2023-07-24T10:00:30;6.60;6.60;3.00
20157;PMS5003;10239;56.820;24.416;2023-07-24T10:02:59;4.80;4.80;2.20
20157;PMS5003;10239;56.820;24.416;2023-07-24T10:05:27;7.00;5.80;2.80
20157;PMS5003;10239;56.820;24.416;2023-07-24T10:07:56;4.80;4.80;3.20
20157;PMS5003;10239;56.820;24.416;2023-07-24T10:10:24;6.00;6.00;2.80
20157;PMS5003;10239;56.820;24.416;2023-07-24T10:12:53;7.20;7.20;2.60
20157;PMS5003;10239;56.820;24.416;2023-07-24T10:15:21;5.60;3.80;1.00
20157;PMS5003;10239;56.820;24.416;2023-07-24T10:17:49;9.00;4.80;3.00
20157;PMS5003;10239;56.820;24.416;2023-07-24T10:20:16;6.40;4.60;2.00
20157;PMS5003;10239;56.820;24.416;2023-07-24T10:22:44;6.75;5.50;2.00
20157;PMS5003;10239;56.820;24.416;2023-07-24T10:25:12;7.50;5.25;2.00
20157;PMS5003;10239;56.820;24.416;2023-07-24T10:27:43;5.25;3.75;2.50
20157;PMS5003;10239;56.820;24.416;2023-07-24T10:30:13;7.25;5.00;2.25
20157;PMS5003;10239;56.820;24.416;2023-07-24T10:33:12;7.25;6.25;3.00
20157;PMS5003;10239;56.820;24.416;2023-07-24T10:35:45;9.50;7.00;3.00
20157;PMS5003;10239;56.820;24.416;2023-07-24T10:38:15;8.50;7.25;3.00
20157;PMS5003;10239;56.820;24.416;2023-07-24T10:40:47;5.75;5.75;3.50
20157;PMS5003;10239;56.820;24.416;2023-07-24T10:43:18;6.50;6.50;3.75
20157;PMS5003;10239;56.820;24.416;2023-07-24T10:45:48;8.00;7.00;4.00
20157;PMS5003;10239;56.820;24.416;2023-07-24T10:48:21;7.25;6.75;3.50
20157;PMS5003;10239;56.820;24.416;2023-07-24T10:50:51;6.50;6.50;3.00
20157;PMS5003;10239;56.820;24.416;2023-07-24T10:53:21;2.25;2.25;2.00
20157;PMS5003;10239;56.820;24.416;2023-07-24T10:55:50;7.50;6.25;3.00
20157;PMS5003;10239;56.820;24.416;2023-07-24T10:58:19;5.25;5.25;3.00
20157;PMS5003;10239;56.820;24.416;2023-07-24T11:00:46;4.25;4.25;2.25
20157;PMS5003;10239;56.820;24.416;2023-07-24T11:03:15;5.50;5.50;2.50
20157;PMS5003;10239;56.820;24.416;2023-07-24T11:05:44;5.50;4.75;2.00
20157;PMS5003;10239;56.820;24.416;2023-07-24T11:08:14;2.50;2.50;1.00
20157;PMS5003;10239;56.820;24.416;2023-07-24T11:10:50;5.75;5.75;3.00
20157;PMS5003;10239;56.820;24.416;2023-07-24T11:13:19;5.75;5.75;3.00
20157;PMS5003;10239;56.820;24.416;2023-07-24T11:15:51;8.25;6.50;3.00
20157;PMS5003;10239;56.820;24.416;2023-07-24T11:18:20;7.50;6.50;3.00
20157;PMS5003;10239;56.820;24.416;2023-07-24T11:20:53;6.00;6.00;3.00
20157;PMS5003;10239;56.820;24.416;2023-07-24T11:23:22;8.25;4.25;1.75
20157;PMS5003;10239;56.820;24.416;2023-07-24T11:25:52;5.25;5.25;2.75
20157;PMS5003;10239;56.820;24.416;2023-07-24T11:28:20;2.75;2.75;1.00
20157;PMS5003;10239;56.820;24.416;2023-07-24T11:30:48;3.25;3.25;1.25
20157;PMS5003;10239;56.820;24.416;2023-07-24T11:33:16;4.50;3.50;2.00
20157;PMS5003;10239;56.820;24.416;2023-07-24T11:35:45;1.00;1.00;0.50
20157;PMS5003;10239;56.820;24.416;2023-07-24T11:38:13;3.50;3.00;1.00
20157;PMS5003;10239;56.820;24.416;2023-07-24T11:40:41;3.00;3.00;2.00
20157;PMS5003;10239;56.820;24.416;2023-07-24T11:43:15;4.75;3.25;2.00
20157;PMS5003;10239;56.820;24.416;2023-07-24T11:45:49;5.25;5.25;2.00
20157;PMS5003;10239;56.820;24.416;2023-07-24T11:48:22;2.75;2.50;1.00
20157;PMS5003;10239;56.820;24.416;2023-07-24T11:50:52;4.50;4.50;2.00
20157;PMS5003;10239;56.820;24.416;2023-07-24T11:53:22;4.25;4.00;2.00
20157;PMS5003;10239;56.820;24.416;2023-07-24T11:55:50;5.75;3.25;2.00
20157;PMS5003;10239;56.820;24.416;2023-07-24T11:58:20;5.00;4.00;1.00
20157;PMS5003;10239;56.820;24.416;2023-07-24T12:00:48;5.75;4.25;2.00
20157;PMS5003;10239;56.820;24.416;2023-07-24T12:03:19;5.00;3.00;2.00
20157;PMS5003;10239;56.820;24.416;2023-07-24T12:05:52;4.00;4.00;2.00
20157;PMS5003;10239;56.820;24.416;2023-07-24T12:08:21;5.50;5.25;2.75
20157;PMS5003;10239;56.820;24.416;2023-07-24T12:10:57;9.25;3.50;1.00
20157;PMS5003;10239;56.820;24.416;2023-07-24T12:13:25;4.25;4.00;3.00
20157;PMS5003;10239;56.820;24.416;2023-07-24T12:15:52;6.50;4.25;3.00
20157;PMS5003;10239;56.820;24.416;2023-07-24T12:18:22;7.00;4.25;2.75
20157;PMS5003;10239;56.820;24.416;2023-07-24T12:20:49;7.50;6.75;3.00
20157;PMS5003;10239;56.820;24.416;2023-07-24T12:23:16;4.50;4.50;2.50
20157;PMS5003;10239;56.820;24.416;2023-07-24T12:25:44;4.25;4.25;2.75
20157;PMS5003;10239;56.820;24.416;2023-07-24T12:28:11;5.50;3.50;2.00
20157;PMS5003;10239;56.820;24.416;2023-07-24T12:30:39;5.00;2.75;1.25
20157;PMS5003;10239;56.820;24.416;2023-07-24T12:33:07;3.50;3.50;1.00
20157;PMS5003;10239;56.820;24.416;2023-07-24T12:35:34;5.50;5.50;3.00
20157;PMS5003;10239;56.820;24.416;2023-07-24T12:38:01;5.75;5.75;2.00
20157;PMS5003;10239;56.820;24.416;2023-07-24T12:40:29;5.25;5.25;2.75
20157;PMS5003;10239;56.820;24.416;2023-07-24T12:42:56;5.50;5.50;2.75
20157;PMS5003;10239;56.820;24.416;2023-07-24T12:45:23;6.00;5.00;3.00
20157;PMS5003;10239;56.820;24.416;2023-07-24T12:47:51;5.25;4.00;1.75
20157;PMS5003;10239;56.820;24.416;2023-07-24T12:50:18;3.40;3.40;1.00
20157;PMS5003;10239;56.820;24.416;2023-07-24T12:52:46;5.40;4.00;2.00
20157;PMS5003;10239;56.820;24.416;2023-07-24T12:55:13;5.75;4.25;1.75
20157;PMS5003;10239;56.820;24.416;2023-07-24T12:57:41;4.20;2.80;0.80
20157;PMS5003;10239;56.820;24.416;2023-07-24T13:00:08;7.25;5.25;3.50
20157;PMS5003;10239;56.820;24.416;2023-07-24T13:02:37;5.50;4.25;2.00
20157;PMS5003;10239;56.820;24.416;2023-07-24T13:05:04;3.75;3.75;2.25
20157;PMS5003;10239;56.820;24.416;2023-07-24T13:07:32;3.25;2.75;0.75
20157;PMS5003;10239;56.820;24.416;2023-07-24T13:10:00;4.75;4.75;2.50
20157;PMS5003;10239;56.820;24.416;2023-07-24T13:12:28;5.25;5.25;3.00
20157;PMS5003;10239;56.820;24.416;2023-07-24T13:14:55;7.00;7.00;4.75
20157;PMS5003;10239;56.820;24.416;2023-07-24T13:17:23;7.25;7.25;4.25
20157;PMS5003;10239;56.820;24.416;2023-07-24T13:19:51;5.00;4.50;3.00
20157;PMS5003;10239;56.820;24.416;2023-07-24T13:22:18;6.40;6.40;3.00
20157;PMS5003;10239;56.820;24.416;2023-07-24T13:24:46;7.75;6.00;4.50
20157;PMS5003;10239;56.820;24.416;2023-07-24T13:27:13;7.50;7.00;3.00
20157;PMS5003;10239;56.820;24.416;2023-07-24T13:29:41;7.50;6.25;3.00
20157;PMS5003;10239;56.820;24.416;2023-07-24T13:32:08;5.50;5.50;3.00
20157;PMS5003;10239;56.820;24.416;2023-07-24T13:34:35;6.75;5.00;3.25
20157;PMS5003;10239;56.820;24.416;2023-07-24T13:37:04;5.25;5.25;3.00
20157;PMS5003;10239;56.820;24.416;2023-07-24T13:39:32;4.20;4.20;2.80
20157;PMS5003;10239;56.820;24.416;2023-07-24T13:42:01;4.80;4.00;2.00
20157;PMS5003;10239;56.820;24.416;2023-07-24T13:44:28;5.75;5.75;3.25
20157;PMS5003;10239;56.820;24.416;2023-07-24T13:46:56;5.00;5.00;3.00
20157;PMS5003;10239;56.820;24.416;2023-07-24T13:49:23;5.25;5.25;3.00
20157;PMS5003;10239;56.820;24.416;2023-07-24T13:51:51;6.50;4.50;2.00
20157;PMS5003;10239;56.820;24.416;2023-07-24T13:54:18;5.20;5.00;1.80
20157;PMS5003;10239;56.820;24.416;2023-07-24T13:56:46;5.20;3.80;2.00
20157;PMS5003;10239;56.820;24.416;2023-07-24T13:59:13;8.60;6.80;3.00
20157;PMS5003;10239;56.820;24.416;2023-07-24T14:01:41;6.50;5.75;3.75
20157;PMS5003;10239;56.820;24.416;2023-07-24T14:04:09;5.00;5.00;2.00
20157;PMS5003;10239;56.820;24.416;2023-07-24T14:06:39;5.00;5.00;2.75
20157;PMS5003;10239;56.820;24.416;2023-07-24T14:09:06;4.00;4.00;1.60
20157;PMS5003;10239;56.820;24.416;2023-07-24T14:11:34;5.40;5.40;3.00
20157;PMS5003;10239;56.820;24.416;2023-07-24T14:14:02;4.20;3.80;2.40
20157;PMS5003;10239;56.820;24.416;2023-07-24T14:16:30;2.80;2.80;2.00
20157;PMS5003;10239;56.820;24.416;2023-07-24T14:18:57;4.80;4.80;2.60